createdAt,value
2022-07-30T00:01:00.263Z,4.30
2022-07-30T00:03:22.192Z,4.80
2022-07-30T00:05:45.425Z,4.03
2022-07-30T00:08:07.289Z,4.23
2022-07-30T00:10:29.176Z,5.23
2022-07-30T00:12:51.387Z,4.23
2022-07-30T00:15:13.523Z,4.00
2022-07-30T00:17:35.345Z,7.87
2022-07-30T00:19:57.168Z,4.57
2022-07-30T00:22:20.404Z,4.63
2022-07-30T00:24:43.098Z,4.37
2022-07-30T00:27:05.180Z,4.20
2022-07-30T00:29:27.230Z,3.63
2022-07-30T00:31:50.825Z,5.13
2022-07-30T00:34:12.953Z,3.73
2022-07-30T00:36:34.867Z,5.30
2022-07-30T00:39:00.773Z,4.70
2022-07-30T00:41:23.700Z,4.17
2022-07-30T00:43:46.232Z,4.83
2022-07-30T00:46:08.312Z,4.80
2022-07-30T00:48:30.159Z,4.60
2022-07-30T00:50:52.501Z,5.20
2022-07-30T00:53:14.390Z,4.77
2022-07-30T00:55:37.725Z,5.23
2022-07-30T00:57:59.708Z,4.47
2022-07-30T01:00:21.935Z,5.43
2022-07-30T01:02:44.186Z,5.90
2022-07-30T01:05:07.384Z,5.20
2022-07-30T01:07:29.820Z,4.73
2022-07-30T01:09:51.700Z,4.80
2022-07-30T01:12:20.548Z,4.70
2022-07-30T01:14:42.735Z,4.83
2022-07-30T01:17:05.689Z,5.87
2022-07-30T01:19:48.367Z,5.93
2022-07-30T01:22:17.156Z,5.07
2022-07-30T01:24:43.806Z,5.40
2022-07-30T01:27:08.242Z,6.33
2022-07-30T01:29:32.218Z,5.13
2022-07-30T01:31:59.894Z,5.00
2022-07-30T01:34:24.781Z,6.67
2022-07-30T01:36:48.350Z,5.40
2022-07-30T01:39:10.959Z,7.07
2022-07-30T01:41:33.506Z,5.50
2022-07-30T01:43:57.455Z,5.43
2022-07-30T01:46:20.576Z,5.17
2022-07-30T01:48:46.387Z,5.97
2022-07-30T01:51:09.785Z,5.57
2022-07-30T01:53:36.578Z,5.53
2022-07-30T01:56:01.059Z,7.47
2022-07-30T01:58:27.338Z,5.10
2022-07-30T02:00:55.563Z,5.23
2022-07-30T02:03:18.922Z,5.20
2022-07-30T02:05:50.038Z,9.03
2022-07-30T02:08:16.790Z,5.63
2022-07-30T02:10:47.121Z,5.67
2022-07-30T02:13:15.003Z,5.80
2022-07-30T02:15:43.231Z,6.03
2022-07-30T02:18:14.509Z,6.47
2022-07-30T02:20:38.553Z,6.43
2022-07-30T02:23:04.140Z,5.97
2022-07-30T02:25:28.479Z,6.33
2022-07-30T02:27:55.508Z,6.53
2022-07-30T02:30:19.290Z,6.33
2022-07-30T02:32:44.756Z,5.47
2022-07-30T02:35:16.572Z,7.63
2022-07-30T02:37:43.565Z,6.80
2022-07-30T02:40:07.484Z,5.80
2022-07-30T02:42:31.428Z,6.17
2022-07-30T02:44:56.486Z,5.27
2022-07-30T02:47:20.397Z,5.33
2022-07-30T02:49:57.724Z,6.67
2022-07-30T02:52:21.761Z,6.50
2022-07-30T02:54:46.243Z,7.37
2022-07-30T02:57:09.611Z,6.97
2022-07-30T02:59:33.339Z,6.73
2022-07-30T03:01:58.416Z,6.80
2022-07-30T03:04:22.189Z,7.27
2022-07-30T03:06:46.077Z,6.77
2022-07-30T03:09:11.301Z,7.90
2022-07-30T03:11:37.937Z,7.43
2022-07-30T03:13:59.789Z,6.70
2022-07-30T03:16:24.614Z,6.93
2022-07-30T03:18:48.108Z,7.47
2022-07-30T03:21:12.736Z,7.10
2022-07-30T03:23:37.590Z,7.03
2022-07-30T03:26:03.239Z,7.80
2022-07-30T03:28:27.498Z,7.53
2022-07-30T03:30:51.701Z,7.73
2022-07-30T03:33:15.781Z,7.63
2022-07-30T03:35:39.200Z,6.73
2022-07-30T03:38:02.550Z,7.10
2022-07-30T03:40:25.113Z,6.97
2022-07-30T03:42:50.393Z,7.57
2022-07-30T03:45:18.076Z,7.33
2022-07-30T03:47:42.023Z,7.10
2022-07-30T03:50:07.575Z,6.97
2022-07-30T03:52:34.598Z,6.70
2022-07-30T03:54:57.107Z,6.83
2022-07-30T03:57:38.672Z,7.23
2022-07-30T04:00:02.073Z,9.70
2022-07-30T04:02:42.124Z,7.17
2022-07-30T04:05:24.034Z,7.63
2022-07-30T04:07:46.991Z,7.17
2022-07-30T04:10:11.489Z,8.00
2022-07-30T04:12:53.248Z,10.53
2022-07-30T04:16:37.946Z,7.33
2022-07-30T04:18:03.635Z,8.20
2022-07-30T04:20:30.715Z,7.57
2022-07-30T04:22:53.974Z,7.40
2022-07-30T04:25:18.498Z,7.37
2022-07-30T04:27:58.213Z,8.70
2022-07-30T04:30:27.233Z,8.07
2022-07-30T04:32:49.322Z,8.30
2022-07-30T04:35:51.191Z,8.27
2022-07-30T04:38:32.967Z,7.70
2022-07-30T04:40:55.273Z,8.00
2022-07-30T04:43:19.525Z,8.23
2022-07-30T04:45:44.637Z,8.13
2022-07-30T04:48:07.675Z,8.90
2022-07-30T04:50:52.381Z,10.50
2022-07-30T04:53:17.534Z,9.90
2022-07-30T04:55:47.749Z,10.10
2022-07-30T04:58:13.096Z,8.73
2022-07-30T05:00:41.137Z,9.10
2022-07-30T05:03:08.971Z,8.30
2022-07-30T05:05:33.002Z,10.00
2022-07-30T05:07:56.326Z,11.67
2022-07-30T05:10:19.236Z,10.07
2022-07-30T05:12:41.717Z,8.63
2022-07-30T05:15:03.510Z,9.23
2022-07-30T05:17:26.024Z,9.77
2022-07-30T05:19:49.232Z,9.57
2022-07-30T05:22:12.092Z,9.67
2022-07-30T05:24:34.094Z,10.67
2022-07-30T05:26:57.714Z,10.67
2022-07-30T05:29:22.206Z,10.40
2022-07-30T05:31:49.575Z,11.70
2022-07-30T05:34:12.598Z,10.87
2022-07-30T05:36:42.695Z,10.17
2022-07-30T05:39:06.601Z,11.73
2022-07-30T05:41:54.952Z,9.47
2022-07-30T05:44:24.068Z,9.50
2022-07-30T05:46:47.040Z,8.63
2022-07-30T05:49:09.218Z,7.97
2022-07-30T05:51:31.030Z,7.50
2022-07-30T05:53:54.325Z,8.03
2022-07-30T05:56:35.977Z,8.27
2022-07-30T05:59:05.256Z,8.20
2022-07-30T06:01:45.795Z,8.73
2022-07-30T06:04:14.071Z,8.53
2022-07-30T06:06:39.715Z,9.10
2022-07-30T06:09:02.926Z,9.77
2022-07-30T06:11:24.682Z,9.97
2022-07-30T06:13:47.533Z,8.60
2022-07-30T06:16:10.089Z,9.53
2022-07-30T06:18:32.125Z,10.37
2022-07-30T06:20:57.420Z,10.53
2022-07-30T06:23:41.404Z,10.87
2022-07-30T06:26:30.952Z,10.60
2022-07-30T06:28:53.060Z,11.00
2022-07-30T06:31:21.763Z,12.40
2022-07-30T06:33:44.505Z,13.67
2022-07-30T06:36:07.336Z,13.33
2022-07-30T06:38:42.065Z,12.00
2022-07-30T06:41:09.506Z,12.33
2022-07-30T06:43:46.036Z,12.33
2022-07-30T06:46:26.143Z,12.57
2022-07-30T06:48:48.448Z,14.57
2022-07-30T06:51:10.832Z,13.20
2022-07-30T06:53:39.965Z,16.53
2022-07-30T06:56:07.508Z,16.67
2022-07-30T06:58:39.308Z,15.67
2022-07-30T07:01:31.869Z,15.30
2022-07-30T07:03:53.613Z,18.10
2022-07-30T07:06:15.431Z,15.60
2022-07-30T07:08:39.108Z,15.27
2022-07-30T07:11:03.029Z,16.07
2022-07-30T07:13:29.065Z,15.70
2022-07-30T07:15:51.601Z,17.40
2022-07-30T07:18:17.851Z,17.57
2022-07-30T07:20:47.177Z,15.27
2022-07-30T07:23:12.407Z,15.80
2022-07-30T07:25:35.323Z,16.03
2022-07-30T07:28:11.184Z,14.40
2022-07-30T07:30:35.458Z,14.27
2022-07-30T07:32:59.402Z,15.90
2022-07-30T07:35:22.836Z,16.43
2022-07-30T07:37:46.249Z,14.97
2022-07-30T07:40:15.401Z,13.57
2022-07-30T07:42:38.321Z,13.37
2022-07-30T07:45:01.829Z,13.27
2022-07-30T07:47:28.645Z,12.83
2022-07-30T07:50:05.218Z,13.20
2022-07-30T07:52:28.741Z,10.13
2022-07-30T07:54:50.975Z,11.47
2022-07-30T07:57:14.743Z,10.77
2022-07-30T07:59:40.111Z,9.97
2022-07-30T08:02:08.100Z,9.30
2022-07-30T08:04:51.986Z,7.80
2022-07-30T08:07:43.886Z,7.40
2022-07-30T08:10:13.961Z,7.27
2022-07-30T08:12:55.933Z,8.93
2022-07-30T08:15:43.705Z,6.80
2022-07-30T08:18:14.571Z,4.63
2022-07-30T08:20:43.093Z,4.17
2022-07-30T08:23:08.765Z,5.67
2022-07-30T08:25:30.948Z,7.87
2022-07-30T08:27:53.245Z,5.30
2022-07-30T08:30:15.765Z,5.83
2022-07-30T08:32:38.247Z,5.80
2022-07-30T08:35:00.485Z,7.80
2022-07-30T08:37:23.660Z,8.03
2022-07-30T08:39:47.500Z,6.97
2022-07-30T08:42:09.310Z,7.80
2022-07-30T08:44:32.057Z,6.87
2022-07-30T08:46:56.222Z,7.10
2022-07-30T08:49:24.108Z,9.23
2022-07-30T08:51:46.745Z,7.97
2022-07-30T08:54:33.853Z,8.50
2022-07-30T08:56:59.040Z,8.40
2022-07-30T08:59:24.901Z,7.13
2022-07-30T09:02:10.396Z,7.87
2022-07-30T09:04:46.881Z,7.20
2022-07-30T09:07:09.153Z,6.07
2022-07-30T09:09:33.985Z,7.73
2022-07-30T09:11:58.228Z,7.87
2022-07-30T09:14:20.754Z,7.13
2022-07-30T09:16:44.534Z,5.90
2022-07-30T09:19:16.020Z,6.53
2022-07-30T09:21:38.416Z,6.30
2022-07-30T09:24:20.442Z,7.97
2022-07-30T09:27:06.725Z,4.43
2022-07-30T09:29:44.250Z,5.90
2022-07-30T09:32:25.682Z,5.73
2022-07-30T09:35:13.914Z,4.90
2022-07-30T09:38:04.534Z,6.97
2022-07-30T09:41:04.803Z,6.67
2022-07-30T09:43:48.602Z,3.73
2022-07-30T09:46:44.901Z,3.00
2022-07-30T09:49:16.016Z,5.87
2022-07-30T09:54:25.931Z,4.87
2022-07-30T09:56:54.094Z,4.23
2022-07-30T09:59:34.765Z,7.07
2022-07-30T10:02:00.936Z,6.67
2022-07-30T10:04:49.840Z,8.47
2022-07-30T10:07:25.688Z,7.53
2022-07-30T10:09:54.102Z,6.20
2022-07-30T10:12:17.084Z,2.80
2022-07-30T10:14:47.013Z,3.93
2022-07-30T10:17:13.747Z,6.40
2022-07-30T10:19:41.788Z,5.00
2022-07-30T10:22:23.020Z,3.77
2022-07-30T10:25:08.160Z,5.27
2022-07-30T10:27:49.852Z,4.83
2022-07-30T10:30:28.241Z,6.67
2022-07-30T10:32:52.513Z,3.97
2022-07-30T10:35:34.590Z,8.57
2022-07-30T10:37:59.462Z,8.30
2022-07-30T10:40:30.795Z,6.73
2022-07-30T10:43:31.703Z,11.37
2022-07-30T10:46:05.146Z,5.27
2022-07-30T10:48:34.098Z,7.17
2022-07-30T10:50:59.752Z,11.23
2022-07-30T10:53:37.858Z,7.67
2022-07-30T10:56:22.423Z,7.00
2022-07-30T10:59:07.896Z,7.57
2022-07-30T11:02:03.932Z,5.33
2022-07-30T11:04:30.729Z,8.27
2022-07-30T11:06:53.560Z,6.13
2022-07-30T11:09:40.955Z,9.77
2022-07-30T11:12:06.443Z,8.27
2022-07-30T11:15:06.591Z,6.87
2022-07-30T11:18:02.370Z,4.83
2022-07-30T11:20:26.345Z,5.03
2022-07-30T11:22:51.075Z,6.67
2022-07-30T11:25:51.705Z,4.70
2022-07-30T11:28:36.541Z,9.03
2022-07-30T11:30:58.960Z,7.50
2022-07-30T11:33:32.126Z,8.17
2022-07-30T11:36:13.356Z,6.27
2022-07-30T11:38:55.504Z,6.13
2022-07-30T11:41:17.626Z,7.83
2022-07-30T11:43:41.549Z,7.60
2022-07-30T11:46:07.680Z,6.40
2022-07-30T11:48:33.751Z,5.07
2022-07-30T11:51:00.725Z,3.57
2022-07-30T11:53:26.541Z,7.50
2022-07-30T11:55:53.929Z,6.37
2022-07-30T11:58:28.575Z,6.87
2022-07-30T12:00:51.021Z,7.37
2022-07-30T12:03:15.322Z,3.60
2022-07-30T12:05:37.286Z,5.67
2022-07-30T12:07:59.875Z,4.93
2022-07-30T12:10:26.801Z,4.63
2022-07-30T12:12:49.544Z,6.53
2022-07-30T12:15:12.316Z,5.70
2022-07-30T12:17:42.546Z,9.30
2022-07-30T12:20:16.618Z,4.10
2022-07-30T12:22:38.700Z,4.63
2022-07-30T12:25:07.971Z,6.00
2022-07-30T12:27:31.617Z,4.33
2022-07-30T12:29:54.053Z,3.37
2022-07-30T12:32:17.585Z,6.73
2022-07-30T12:34:39.698Z,7.07
2022-07-30T12:37:09.748Z,5.50
2022-07-30T12:39:31.537Z,4.17
2022-07-30T12:41:56.391Z,6.10
2022-07-30T12:44:37.324Z,6.13
2022-07-30T12:46:59.804Z,6.53
2022-07-30T12:49:39.413Z,7.40
2022-07-30T12:52:18.403Z,4.30
2022-07-30T12:54:40.556Z,6.37
2022-07-30T12:57:05.581Z,3.77
2022-07-30T12:59:29.048Z,6.47
2022-07-30T13:01:53.638Z,4.40
2022-07-30T13:04:15.580Z,4.87
2022-07-30T13:06:37.985Z,4.87
2022-07-30T13:09:01.133Z,5.13
2022-07-30T13:11:24.480Z,7.77
2022-07-30T13:13:47.077Z,5.47
2022-07-30T13:16:09.441Z,6.57
2022-07-30T13:18:34.143Z,5.23
2022-07-30T13:20:56.362Z,4.77
2022-07-30T13:23:18.635Z,4.63
2022-07-30T13:25:40.650Z,9.30
2022-07-30T13:28:02.675Z,5.23
2022-07-30T13:30:24.516Z,5.40
2022-07-30T13:32:46.468Z,6.27
2022-07-30T13:35:10.548Z,7.53
2022-07-30T13:37:37.856Z,5.90
2022-07-30T13:40:00.468Z,8.10
2022-07-30T13:42:23.272Z,5.03
2022-07-30T13:44:45.168Z,5.67
2022-07-30T13:47:09.264Z,5.43
2022-07-30T13:49:31.423Z,4.20
2022-07-30T13:51:55.061Z,6.07
2022-07-30T13:54:17.216Z,6.33
2022-07-30T13:56:40.857Z,8.07
2022-07-30T13:59:04.786Z,4.10
2022-07-30T14:01:26.663Z,6.73
2022-07-30T14:03:50.856Z,6.30
2022-07-30T14:06:12.906Z,4.30
2022-07-30T14:08:36.532Z,6.50
2022-07-30T14:10:59.374Z,5.50
2022-07-30T14:13:21.559Z,6.37
2022-07-30T14:15:43.723Z,7.90
2022-07-30T14:18:05.773Z,4.50
2022-07-30T14:20:29.065Z,4.97
2022-07-30T14:22:51.474Z,9.23
2022-07-30T14:25:15.124Z,4.37
2022-07-30T14:27:37.240Z,4.30
2022-07-30T14:29:59.420Z,4.70
2022-07-30T14:32:21.339Z,4.33
2022-07-30T14:34:49.118Z,5.33
2022-07-30T14:37:14.512Z,6.83
2022-07-30T14:39:36.625Z,4.67
2022-07-30T14:41:59.660Z,3.00
2022-07-30T14:44:21.432Z,4.53
2022-07-30T14:46:52.546Z,3.37
2022-07-30T14:49:15.756Z,3.53
2022-07-30T14:51:38.866Z,4.47
2022-07-30T14:54:01.197Z,5.43
2022-07-30T14:56:24.934Z,4.90
2022-07-30T14:58:48.665Z,3.80
2022-07-30T15:01:15.913Z,3.93
2022-07-30T15:03:38.849Z,4.37
2022-07-30T15:06:00.724Z,3.93
2022-07-30T15:08:23.129Z,4.00
2022-07-30T15:10:45.057Z,5.60
2022-07-30T15:13:07.744Z,5.40
2022-07-30T15:15:32.832Z,3.47
2022-07-30T15:18:00.297Z,4.47
2022-07-30T15:20:22.448Z,6.97
2022-07-30T15:22:44.359Z,5.47
2022-07-30T15:25:07.651Z,4.07
2022-07-30T15:27:33.925Z,6.10
2022-07-30T15:29:56.492Z,4.50
2022-07-30T15:32:20.013Z,4.17
2022-07-30T15:34:42.006Z,5.40
2022-07-30T15:37:05.571Z,5.17
2022-07-30T15:39:29.332Z,4.93
2022-07-30T15:41:53.949Z,2.37
2022-07-30T15:44:16.107Z,2.67
2022-07-30T15:46:41.609Z,2.60
2022-07-30T15:49:05.114Z,3.90
2022-07-30T15:51:27.713Z,4.70
2022-07-30T15:53:50.045Z,3.57
2022-07-30T15:56:11.866Z,3.77
2022-07-30T15:58:33.890Z,4.37
2022-07-30T16:00:56.520Z,3.07
2022-07-30T16:03:18.300Z,3.33
2022-07-30T16:05:51.101Z,3.57
2022-07-30T16:08:14.464Z,2.23
2022-07-30T16:10:40.434Z,7.07
2022-07-30T16:13:03.569Z,3.40
2022-07-30T16:15:26.163Z,4.87
2022-07-30T16:17:48.369Z,5.60
2022-07-30T16:20:11.207Z,6.10
2022-07-30T16:22:34.746Z,3.63
2022-07-30T16:24:56.935Z,4.63
2022-07-30T16:27:18.832Z,5.37
2022-07-30T16:29:40.995Z,3.30
2022-07-30T16:32:03.396Z,4.07
2022-07-30T16:34:26.600Z,3.33
2022-07-30T16:36:49.071Z,3.47
2022-07-30T16:39:12.732Z,4.47
2022-07-30T16:41:34.628Z,1.77
2022-07-30T16:43:56.465Z,3.43
2022-07-30T16:46:19.061Z,3.80
2022-07-30T16:48:41.430Z,4.30
2022-07-30T16:51:03.689Z,4.63
2022-07-30T16:53:26.575Z,3.07
2022-07-30T16:55:50.028Z,5.60
2022-07-30T16:58:12.555Z,4.30
2022-07-30T17:00:34.357Z,2.70
2022-07-30T17:02:56.224Z,2.83
2022-07-30T17:05:19.140Z,3.03
2022-07-30T17:07:41.246Z,4.40
2022-07-30T17:10:03.221Z,2.77
2022-07-30T17:12:29.343Z,4.70
2022-07-30T17:14:51.584Z,3.77
2022-07-30T17:17:14.351Z,3.77
2022-07-30T17:19:36.295Z,1.93
2022-07-30T17:21:58.137Z,3.10
2022-07-30T17:24:20.827Z,4.53
2022-07-30T17:26:44.302Z,1.43
2022-07-30T17:29:13.501Z,3.63
2022-07-30T17:31:39.234Z,5.87
2022-07-30T17:34:01.409Z,1.33
2022-07-30T17:36:23.490Z,1.40
2022-07-30T17:38:45.533Z,5.83
2022-07-30T17:41:11.757Z,1.23
2022-07-30T17:43:35.481Z,2.07
2022-07-30T17:45:58.892Z,2.33
2022-07-30T17:48:21.710Z,1.43
2022-07-30T17:50:43.673Z,5.63
2022-07-30T17:53:06.623Z,4.27
2022-07-30T17:55:29.011Z,4.03
2022-07-30T17:57:51.132Z,2.53
2022-07-30T18:00:14.835Z,2.63
2022-07-30T18:02:38.375Z,5.20
2022-07-30T18:05:00.605Z,3.10
2022-07-30T18:07:22.602Z,3.50
2022-07-30T18:09:44.810Z,1.57
2022-07-30T18:12:07.359Z,2.60
2022-07-30T18:14:29.577Z,2.23
2022-07-30T18:16:52.189Z,2.10
2022-07-30T18:19:22.872Z,2.43
2022-07-30T18:21:49.057Z,2.20
2022-07-30T18:24:11.809Z,2.43
2022-07-30T18:26:38.427Z,3.13
2022-07-30T18:29:00.433Z,1.00
2022-07-30T18:31:22.418Z,3.17
2022-07-30T18:33:44.310Z,2.30
2022-07-30T18:36:07.836Z,2.97
2022-07-30T18:38:29.737Z,1.53
2022-07-30T18:40:58.452Z,3.40
2022-07-30T18:43:20.380Z,4.20
2022-07-30T18:45:42.540Z,3.33
2022-07-30T18:48:05.231Z,2.77
2022-07-30T18:50:27.779Z,1.50
2022-07-30T18:52:51.577Z,1.97
2022-07-30T18:55:14.039Z,1.17
2022-07-30T18:57:36.431Z,2.13
2022-07-30T18:59:58.398Z,3.93
2022-07-30T19:02:20.866Z,2.00
2022-07-30T19:04:42.784Z,1.50
2022-07-30T19:07:04.736Z,1.40
2022-07-30T19:09:28.181Z,3.27
2022-07-30T19:11:50.467Z,1.33
2022-07-30T19:14:13.961Z,1.77
2022-07-30T19:16:36.166Z,2.80
2022-07-30T19:18:58.095Z,1.90
2022-07-30T19:21:19.991Z,1.43
2022-07-30T19:23:41.930Z,1.90
2022-07-30T19:26:05.845Z,3.43
2022-07-30T19:28:27.888Z,3.80
2022-07-30T19:30:49.833Z,2.70
2022-07-30T19:33:15.468Z,2.37
2022-07-30T19:35:38.517Z,2.33
2022-07-30T19:38:01.041Z,1.50
2022-07-30T19:40:23.229Z,1.43
2022-07-30T19:42:51.025Z,1.20
2022-07-30T19:45:18.062Z,1.10
2022-07-30T19:47:42.237Z,1.30
2022-07-30T19:50:04.798Z,1.93
2022-07-30T19:52:27.264Z,1.60
2022-07-30T19:54:49.775Z,1.47
2022-07-30T19:57:11.694Z,1.30
2022-07-30T19:59:45.758Z,1.37
2022-07-30T20:02:17.744Z,2.60
2022-07-30T20:04:39.791Z,1.97
2022-07-30T20:07:06.229Z,1.27
2022-07-30T20:09:28.019Z,3.30
2022-07-30T20:11:52.457Z,1.30
2022-07-30T20:14:15.554Z,3.37
2022-07-30T20:17:01.919Z,1.57
2022-07-30T20:19:24.529Z,2.63
2022-07-30T20:22:06.815Z,1.83
2022-07-30T20:24:28.798Z,1.63
2022-07-30T20:26:50.701Z,1.90
2022-07-30T20:29:19.180Z,2.47
2022-07-30T20:31:41.988Z,3.57
2022-07-30T20:34:16.439Z,3.10
2022-07-30T20:36:39.801Z,1.60
2022-07-30T20:39:01.831Z,1.67
2022-07-30T20:41:27.236Z,1.70
2022-07-30T20:43:51.840Z,1.80
2022-07-30T20:46:14.951Z,5.83
2022-07-30T20:48:37.971Z,14.03
2022-07-30T20:51:01.579Z,11.33
2022-07-30T20:53:23.948Z,6.23
2022-07-30T20:55:55.571Z,3.17
2022-07-30T20:58:17.723Z,1.80
2022-07-30T21:00:41.526Z,1.50
2022-07-30T21:03:05.077Z,1.80
2022-07-30T21:05:27.643Z,2.07
2022-07-30T21:07:56.370Z,1.93
2022-07-30T21:10:23.503Z,2.17
2022-07-30T21:12:50.888Z,1.10
2022-07-30T21:15:23.465Z,1.50
2022-07-30T21:17:46.420Z,1.63
2022-07-30T21:20:13.011Z,2.40
2022-07-30T21:22:36.266Z,1.47
2022-07-30T21:25:00.711Z,2.37
2022-07-30T21:27:22.901Z,1.23
2022-07-30T21:29:52.718Z,1.63
2022-07-30T21:32:18.345Z,2.20
2022-07-30T21:34:42.365Z,1.80
2022-07-30T21:37:04.526Z,1.80
2022-07-30T21:39:28.891Z,3.93
2022-07-30T21:41:52.614Z,3.23
2022-07-30T21:44:17.726Z,3.40
2022-07-30T21:46:40.489Z,2.70
2022-07-30T21:49:06.853Z,2.50
2022-07-30T21:51:29.002Z,3.50
2022-07-30T21:53:52.522Z,3.20
2022-07-30T21:56:16.227Z,2.77
2022-07-30T21:58:39.665Z,4.10
2022-07-30T22:01:16.581Z,4.93
2022-07-30T22:04:02.631Z,4.17
2022-07-30T22:06:28.890Z,4.43
2022-07-30T22:08:51.581Z,5.13
2022-07-30T22:11:13.893Z,4.80
2022-07-30T22:13:51.241Z,5.10
2022-07-30T22:16:15.685Z,5.20
2022-07-30T22:18:37.481Z,4.90
2022-07-30T22:21:00.913Z,5.57
2022-07-30T22:23:23.488Z,5.73
2022-07-30T22:25:46.920Z,5.03
2022-07-30T22:28:12.048Z,5.53
2022-07-30T22:30:37.053Z,6.27
2022-07-30T22:33:15.085Z,6.47
2022-07-30T22:35:37.518Z,5.30
2022-07-30T22:38:01.016Z,6.00
2022-07-30T22:40:24.670Z,5.70
2022-07-30T22:42:50.018Z,5.03
2022-07-30T22:45:12.412Z,5.43
2022-07-30T22:47:51.276Z,5.57
2022-07-30T22:50:17.528Z,4.43
2022-07-30T22:52:55.062Z,5.30
2022-07-30T22:55:22.348Z,4.80
2022-07-30T22:57:44.285Z,4.57
2022-07-30T23:00:13.082Z,4.80
2022-07-30T23:02:37.321Z,4.47
2022-07-30T23:04:59.447Z,4.93
2022-07-30T23:07:34.123Z,3.77
2022-07-30T23:10:01.817Z,3.93
2022-07-30T23:12:24.764Z,4.30
2022-07-30T23:14:46.543Z,3.40
2022-07-30T23:17:08.475Z,3.50
2022-07-30T23:19:32.050Z,3.13
2022-07-30T23:21:54.164Z,3.40
2022-07-30T23:24:17.791Z,4.53
2022-07-30T23:26:39.855Z,3.43
2022-07-30T23:29:01.978Z,3.27
2022-07-30T23:31:26.913Z,4.17
2022-07-30T23:33:48.962Z,2.73
2022-07-30T23:36:12.415Z,3.30
2022-07-30T23:38:34.695Z,3.63
2022-07-30T23:41:01.093Z,2.93
2022-07-30T23:43:23.187Z,2.87
2022-07-30T23:45:45.169Z,3.70
2022-07-30T23:48:07.488Z,3.50
2022-07-30T23:50:29.442Z,3.73
2022-07-30T23:52:52.818Z,3.37
2022-07-30T23:55:15.036Z,4.93
2022-07-30T23:57:39.321Z,5.17
